createdAt,value
2018-02-04T00:01:13.186Z,83.86
2018-02-04T00:02:13.181Z,84.42
2018-02-04T00:04:06.073Z,83.86
2018-02-04T00:05:06.085Z,84.52
2018-02-04T00:06:58.991Z,84.61
2018-02-04T00:07:58.985Z,84.14
2018-02-04T00:09:51.893Z,83.86
2018-02-04T00:10:51.890Z,84.33
2018-02-04T00:12:44.782Z,84.81
2018-02-04T00:13:44.791Z,84.52
2018-02-04T00:15:37.699Z,83.86
2018-02-04T00:16:37.694Z,84.52
2018-02-04T00:18:30.583Z,83.29
2018-02-04T00:19:30.595Z,83.39
2018-02-04T00:21:23.503Z,83.76
2018-02-04T00:22:23.496Z,83.48
2018-02-04T00:24:16.389Z,83.58
2018-02-04T00:25:16.400Z,83.34
2018-02-04T00:27:09.307Z,83.10
2018-02-04T00:28:09.301Z,83.48
2018-02-04T00:30:02.208Z,83.86
2018-02-04T00:31:02.202Z,84.33
2018-02-04T00:32:55.089Z,83.48
2018-02-04T00:33:55.115Z,83.01
2018-02-04T00:35:48.011Z,82.91
2018-02-04T00:36:48.010Z,83.76
2018-02-04T00:38:40.896Z,83.48
2018-02-04T00:39:40.907Z,83.58
2018-02-04T00:41:33.815Z,84.14
2018-02-04T00:42:33.852Z,84.61
2018-02-04T00:44:26.701Z,83.67
2018-02-04T00:45:26.715Z,83.01
2018-02-04T00:47:19.622Z,82.72
2018-02-04T00:48:19.615Z,83.10
2018-02-04T00:50:12.528Z,83.01
2018-02-04T00:51:12.523Z,82.72
2018-02-04T00:53:05.411Z,82.82
2018-02-04T00:54:05.425Z,82.72
2018-02-04T00:55:58.335Z,82.91
2018-02-04T00:56:58.329Z,82.21
2018-02-04T00:58:51.218Z,82.59
2018-02-04T00:59:51.231Z,82.31
2018-02-04T01:01:44.138Z,81.55
2018-02-04T01:02:44.133Z,81.93
2018-02-04T01:04:37.023Z,82.50
2018-02-04T01:05:37.037Z,82.50
2018-02-04T01:07:29.943Z,82.12
2018-02-04T01:08:29.939Z,82.34
2018-02-04T01:10:22.854Z,81.64
2018-02-04T01:11:22.837Z,80.69
2018-02-04T01:13:15.729Z,80.51
2018-02-04T01:14:15.742Z,80.22
2018-02-04T01:16:08.650Z,81.36
2018-02-04T01:17:08.645Z,80.69
2018-02-04T01:19:01.536Z,80.60
2018-02-04T01:20:01.548Z,80.41
2018-02-04T01:21:54.455Z,80.22
2018-02-04T01:22:54.450Z,80.60
2018-02-04T01:24:47.340Z,80.51
2018-02-04T01:25:47.353Z,80.60
2018-02-04T01:27:40.260Z,80.51
2018-02-04T01:28:40.255Z,80.41
2018-02-04T01:30:33.169Z,80.22
2018-02-04T01:31:33.162Z,80.51
2018-02-04T01:33:26.048Z,80.22
2018-02-04T01:34:26.061Z,80.41
2018-02-04T01:36:18.976Z,79.94
2018-02-04T01:37:18.971Z,79.94
2018-02-04T01:39:11.859Z,79.75
2018-02-04T01:40:11.884Z,79.09
2018-02-04T01:42:04.782Z,79.56
2018-02-04T01:43:04.776Z,80.04
2018-02-04T01:44:57.662Z,79.66
2018-02-04T01:45:57.678Z,80.51
2018-02-04T01:47:50.584Z,79.75
2018-02-04T01:48:50.578Z,79.56
2018-02-04T01:50:43.484Z,79.66
2018-02-04T01:51:43.477Z,79.75
2018-02-04T01:53:36.368Z,79.85
2018-02-04T01:54:36.383Z,79.66
2018-02-04T01:56:29.287Z,79.47
2018-02-04T01:57:29.281Z,79.56
2018-02-04T01:59:22.174Z,80.13
2018-02-04T02:00:22.190Z,80.04
2018-02-04T02:02:15.091Z,79.85
2018-02-04T02:03:15.083Z,79.75
2018-02-04T02:05:07.981Z,79.47
2018-02-04T02:06:07.994Z,79.18
2018-02-04T02:08:00.899Z,78.71
2018-02-04T02:09:00.894Z,78.71
2018-02-04T02:10:53.804Z,78.05
2018-02-04T02:11:53.797Z,78.23
2018-02-04T02:13:46.684Z,78.33
2018-02-04T02:14:46.696Z,78.14
2018-02-04T02:16:39.608Z,78.14
2018-02-04T02:17:39.599Z,78.05
2018-02-04T02:19:32.490Z,78.33
2018-02-04T02:20:32.503Z,78.23
2018-02-04T02:22:25.418Z,78.14
2018-02-04T02:23:25.408Z,77.76
2018-02-04T02:25:18.301Z,78.23
2018-02-04T02:26:18.313Z,77.95
2018-02-04T02:28:11.223Z,77.95
2018-02-04T02:29:11.215Z,76.91
2018-02-04T02:31:04.126Z,77.58
2018-02-04T02:32:04.120Z,77.39
2018-02-04T02:33:57.021Z,77.67
2018-02-04T02:34:57.025Z,78.23
2018-02-04T02:36:49.934Z,77.39
2018-02-04T02:37:49.926Z,77.39
2018-02-04T02:39:42.819Z,77.48
2018-02-04T02:40:42.830Z,76.91
2018-02-04T02:42:35.742Z,77.76
2018-02-04T02:43:35.733Z,77.20
2018-02-04T02:45:28.623Z,77.58
2018-02-04T02:46:28.635Z,76.72
2018-02-04T02:48:21.544Z,76.72
2018-02-04T02:49:21.538Z,77.10
2018-02-04T02:51:14.450Z,77.48
2018-02-04T02:52:14.443Z,77.20
2018-02-04T02:54:07.332Z,77.10
2018-02-04T02:55:07.348Z,76.15
2018-02-04T02:57:00.274Z,77.86
2018-02-04T02:58:00.271Z,77.86
2018-02-04T02:59:53.158Z,76.63
2018-02-04T03:00:53.169Z,76.91
2018-02-04T03:02:46.081Z,77.10
2018-02-04T03:03:46.078Z,77.76
2018-02-04T03:05:38.964Z,77.01
2018-02-04T03:06:38.975Z,77.58
2018-02-04T03:08:31.892Z,77.67
2018-02-04T03:09:31.881Z,77.58
2018-02-04T03:11:24.791Z,77.01
2018-02-04T03:12:24.782Z,77.01
2018-02-04T03:14:17.673Z,77.58
2018-02-04T03:15:17.684Z,76.91
2018-02-04T03:17:10.588Z,77.48
2018-02-04T03:18:10.582Z,77.67
2018-02-04T03:20:03.475Z,77.01
2018-02-04T03:21:03.488Z,77.01
2018-02-04T03:22:56.397Z,77.39
2018-02-04T03:23:56.391Z,77.29
2018-02-04T03:25:49.284Z,76.72
2018-02-04T03:26:49.296Z,77.01
2018-02-04T03:28:42.207Z,77.29
2018-02-04T03:29:42.200Z,77.95
2018-02-04T03:31:35.145Z,76.82
2018-02-04T03:32:35.144Z,77.95
2018-02-04T03:34:28.030Z,77.39
2018-02-04T03:35:28.042Z,77.76
2018-02-04T03:37:20.955Z,76.72
2018-02-04T03:38:20.994Z,77.10
2018-02-04T03:40:13.840Z,77.67
2018-02-04T03:41:13.854Z,76.72
2018-02-04T03:43:06.792Z,77.20
2018-02-04T03:44:06.787Z,77.76
2018-02-04T03:45:59.727Z,76.82
2018-02-04T03:46:59.742Z,77.01
2018-02-04T03:48:52.700Z,78.05
2018-02-04T03:49:52.695Z,77.58
2018-02-04T03:51:45.659Z,77.58
2018-02-04T03:52:45.650Z,77.86
2018-02-04T03:54:38.588Z,77.01
2018-02-04T03:55:38.602Z,77.01
2018-02-04T03:57:31.561Z,77.01
2018-02-04T03:58:31.557Z,77.29
2018-02-04T04:00:25.008Z,76.91
2018-02-04T04:01:25.022Z,77.01
2018-02-04T04:03:17.982Z,77.10
2018-02-04T04:04:17.977Z,77.01
2018-02-04T04:06:10.917Z,77.58
2018-02-04T04:07:10.932Z,77.95
2018-02-04T04:09:03.892Z,77.86
2018-02-04T04:10:03.886Z,77.58
2018-02-04T04:11:56.848Z,77.20
2018-02-04T04:12:56.847Z,77.76
2018-02-04T04:14:49.779Z,77.58
2018-02-04T04:15:49.792Z,78.14
2018-02-04T04:17:42.755Z,77.86
2018-02-04T04:18:42.749Z,78.71
2018-02-04T04:20:36.200Z,78.14
2018-02-04T04:21:36.213Z,77.76
2018-02-04T04:23:29.685Z,77.95
2018-02-04T04:24:29.679Z,77.58
2018-02-04T04:26:22.621Z,78.14
2018-02-04T04:27:22.635Z,77.76
2018-02-04T04:29:15.595Z,77.58
2018-02-04T04:30:15.588Z,78.23
2018-02-04T04:32:08.549Z,77.76
2018-02-04T04:33:08.544Z,77.95
2018-02-04T04:35:01.485Z,77.39
2018-02-04T04:36:01.497Z,77.76
2018-02-04T04:37:54.456Z,77.67
2018-02-04T04:38:54.453Z,77.95
2018-02-04T04:40:47.391Z,77.48
2018-02-04T04:41:47.404Z,76.63
2018-02-04T04:43:40.366Z,76.15
2018-02-04T04:44:40.358Z,75.31
2018-02-04T04:46:33.307Z,74.26
2018-02-04T04:47:33.314Z,73.13
2018-02-04T04:49:26.227Z,72.66
2018-02-04T04:50:26.220Z,72.66
2018-02-04T04:52:19.229Z,72.94
2018-02-04T04:53:19.223Z,72.75
2018-02-04T04:55:12.163Z,72.75
2018-02-04T04:56:12.176Z,72.75
2018-02-04T04:58:06.671Z,73.13
2018-02-04T04:59:06.667Z,72.56
2018-02-04T05:01:01.143Z,72.75
2018-02-04T05:02:01.156Z,73.13
2018-02-04T05:03:54.116Z,72.75
2018-02-04T05:04:54.113Z,71.80
2018-02-04T05:06:47.055Z,71.71
2018-02-04T05:07:47.064Z,72.28
2018-02-04T05:09:40.026Z,71.80
2018-02-04T05:10:40.019Z,72.37
2018-02-04T05:12:32.981Z,72.85
2018-02-04T05:13:32.976Z,73.32
2018-02-04T05:15:25.913Z,73.03
2018-02-04T05:16:25.928Z,72.85
2018-02-04T05:18:19.399Z,72.94
2018-02-04T05:19:19.394Z,72.94
2018-02-04T05:21:12.334Z,72.85
2018-02-04T05:22:12.347Z,72.66
2018-02-04T05:24:05.310Z,72.85
2018-02-04T05:25:05.302Z,73.32
2018-02-04T05:26:58.245Z,72.75
2018-02-04T05:27:58.258Z,72.85
2018-02-04T05:29:51.230Z,72.75
2018-02-04T05:30:51.224Z,72.56
2018-02-04T05:32:47.154Z,73.50
2018-02-04T05:33:47.141Z,73.13
2018-02-04T05:35:40.077Z,73.88
2018-02-04T05:36:40.087Z,73.79
2018-02-04T05:38:33.049Z,73.60
2018-02-04T05:39:33.043Z,73.50
2018-02-04T05:41:25.990Z,74.45
2018-02-04T05:42:25.997Z,73.50
2018-02-04T05:44:18.958Z,74.36
2018-02-04T05:45:18.952Z,74.07
2018-02-04T05:47:11.895Z,74.64
2018-02-04T05:48:11.907Z,74.07
2018-02-04T05:50:05.377Z,74.26
2018-02-04T05:51:05.370Z,74.45
2018-02-04T05:52:58.330Z,74.55
2018-02-04T05:53:58.326Z,74.26
2018-02-04T05:55:51.265Z,74.36
2018-02-04T05:56:51.280Z,75.02
2018-02-04T05:58:44.248Z,75.40
2018-02-04T05:59:44.233Z,75.12
2018-02-04T06:01:37.179Z,74.93
2018-02-04T06:02:37.188Z,75.31
2018-02-04T06:04:30.174Z,75.31
2018-02-04T06:05:30.145Z,75.21
2018-02-04T06:07:23.086Z,75.68
2018-02-04T06:08:23.097Z,75.96
2018-02-04T06:10:16.055Z,76.06
2018-02-04T06:11:16.153Z,76.15
2018-02-04T06:13:09.012Z,76.25
2018-02-04T06:14:09.007Z,76.53
2018-02-04T06:16:01.947Z,76.06
2018-02-04T06:17:01.958Z,76.34
2018-02-04T06:18:54.920Z,76.91
2018-02-04T06:19:54.986Z,76.53
2018-02-04T06:21:47.859Z,76.91
2018-02-04T06:22:47.873Z,76.53
2018-02-04T06:24:40.783Z,77.10
2018-02-04T06:25:40.777Z,76.91
2018-02-04T06:27:33.766Z,76.91
2018-02-04T06:28:33.780Z,76.82
2018-02-04T06:30:26.737Z,76.91
2018-02-04T06:31:26.731Z,77.29
2018-02-04T06:33:19.692Z,77.29
2018-02-04T06:34:19.686Z,77.76
2018-02-04T06:36:12.628Z,76.72
2018-02-04T06:37:12.640Z,76.63
2018-02-04T06:39:06.110Z,77.58
2018-02-04T06:40:06.107Z,77.58
2018-02-04T06:41:59.048Z,77.58
2018-02-04T06:42:59.064Z,78.14
2018-02-04T06:44:52.021Z,77.86
2018-02-04T06:45:52.015Z,79.09
2018-02-04T06:47:44.957Z,78.23
2018-02-04T06:48:44.970Z,78.05
2018-02-04T06:50:37.929Z,78.05
2018-02-04T06:51:37.925Z,78.71
2018-02-04T06:53:30.883Z,78.42
2018-02-04T06:54:30.877Z,78.61
2018-02-04T06:56:23.818Z,78.99
2018-02-04T06:57:23.830Z,79.09
2018-02-04T06:59:16.789Z,79.47
2018-02-04T07:00:16.783Z,78.99
2018-02-04T07:02:10.239Z,79.18
2018-02-04T07:03:10.252Z,78.80
2018-02-04T07:05:03.210Z,79.47
2018-02-04T07:06:03.204Z,79.18
2018-02-04T07:07:56.148Z,79.28
2018-02-04T07:08:56.159Z,79.28
2018-02-04T07:10:49.118Z,79.18
2018-02-04T07:11:49.119Z,78.99
2018-02-04T07:13:42.073Z,79.09
2018-02-04T07:14:42.071Z,78.90
2018-02-04T07:16:35.008Z,79.09
2018-02-04T07:17:35.020Z,79.09
2018-02-04T07:19:27.984Z,79.18
2018-02-04T07:20:27.976Z,79.09
2018-02-04T07:22:20.917Z,78.33
2018-02-04T07:23:20.931Z,78.61
2018-02-04T07:25:13.915Z,78.23
2018-02-04T07:26:13.886Z,78.14
2018-02-04T07:28:06.826Z,78.05
2018-02-04T07:29:06.850Z,78.61
2018-02-04T07:30:59.799Z,79.09
2018-02-04T07:31:59.792Z,79.09
2018-02-04T07:33:52.753Z,79.09
2018-02-04T07:34:52.747Z,79.66
2018-02-04T07:36:45.689Z,80.22
2018-02-04T07:37:45.704Z,79.85
2018-02-04T07:39:38.662Z,80.41
2018-02-04T07:40:38.656Z,81.45
2018-02-04T07:42:31.596Z,81.83
2018-02-04T07:43:31.612Z,81.93
2018-02-04T07:45:24.568Z,82.12
2018-02-04T07:46:24.562Z,82.02
2018-02-04T07:48:17.538Z,82.31
2018-02-04T07:49:17.517Z,82.78
2018-02-04T07:51:10.476Z,82.50
2018-02-04T07:52:10.471Z,83.34
2018-02-04T07:54:03.472Z,82.40
2018-02-04T07:55:03.435Z,82.87
2018-02-04T07:56:56.878Z,82.78
2018-02-04T07:57:56.898Z,82.40
2018-02-04T07:59:49.851Z,82.59
2018-02-04T08:00:49.858Z,83.25
2018-02-04T08:02:42.789Z,82.97
2018-02-04T08:03:42.803Z,83.44
2018-02-04T08:05:35.763Z,83.34
2018-02-04T08:06:35.754Z,83.63
2018-02-04T08:08:28.701Z,83.63
2018-02-04T08:09:28.717Z,83.82
2018-02-04T08:11:21.669Z,83.82
2018-02-04T08:12:21.664Z,84.48
2018-02-04T08:14:14.621Z,84.10
2018-02-04T08:15:14.618Z,83.72
2018-02-04T08:17:07.558Z,84.20
2018-02-04T08:18:07.571Z,84.01
2018-02-04T08:20:00.531Z,84.01
2018-02-04T08:21:00.525Z,84.48
2018-02-04T08:22:53.467Z,84.39
2018-02-04T08:23:53.480Z,84.77
2018-02-04T08:25:46.439Z,83.82
2018-02-04T08:26:46.435Z,84.48
2018-02-04T08:28:39.375Z,84.29
2018-02-04T08:29:39.390Z,84.29
2018-02-04T08:31:32.413Z,84.77
2018-02-04T08:32:32.345Z,84.58
2018-02-04T08:34:25.301Z,84.48
2018-02-04T08:35:25.296Z,84.67
2018-02-04T08:37:18.237Z,84.23
2018-02-04T08:38:18.252Z,83.76
2018-02-04T08:40:11.210Z,83.86
2018-02-04T08:41:11.205Z,83.86
2018-02-04T08:43:04.146Z,83.58
2018-02-04T08:44:04.159Z,83.39
2018-02-04T08:45:57.119Z,82.91
2018-02-04T08:46:57.118Z,83.10
2018-02-04T08:48:50.054Z,83.20
2018-02-04T08:49:50.069Z,83.20
2018-02-04T08:51:43.026Z,82.63
2018-02-04T08:52:43.023Z,82.91
2018-02-04T08:54:35.980Z,82.82
2018-02-04T08:55:35.977Z,82.82
2018-02-04T08:57:28.915Z,82.34
2018-02-04T08:58:28.932Z,82.34
2018-02-04T09:00:21.890Z,81.49
2018-02-04T09:01:21.882Z,81.68
2018-02-04T09:03:14.824Z,80.83
2018-02-04T09:04:14.839Z,81.30
2018-02-04T09:06:07.847Z,81.68
2018-02-04T09:07:07.821Z,81.68
2018-02-04T09:09:00.734Z,82.63
2018-02-04T09:10:00.745Z,81.49
2018-02-04T09:11:53.736Z,82.06
2018-02-04T09:12:53.739Z,81.59
2018-02-04T09:14:47.689Z,81.96
2018-02-04T09:15:47.680Z,81.49
2018-02-04T09:17:40.618Z,81.12
2018-02-04T09:18:40.632Z,81.12
2018-02-04T09:20:33.592Z,80.74
2018-02-04T09:21:33.587Z,80.64
2018-02-04T09:23:26.532Z,80.64
2018-02-04T09:24:26.622Z,80.55
2018-02-04T09:26:19.519Z,81.21
2018-02-04T09:27:19.506Z,81.12
2018-02-04T09:29:12.451Z,80.36
2018-02-04T09:30:12.460Z,80.26
2018-02-04T09:32:05.411Z,80.55
2018-02-04T09:33:05.409Z,80.64
2018-02-04T09:34:58.348Z,80.07
2018-02-04T09:35:58.359Z,79.88
2018-02-04T09:37:51.324Z,79.03
2018-02-04T09:38:51.413Z,78.94
2018-02-04T09:40:44.309Z,79.69
2018-02-04T09:41:44.383Z,79.50
2018-02-04T09:43:44.935Z,79.22
2018-02-04T09:44:44.961Z,79.41
2018-02-04T09:46:37.961Z,80.07
2018-02-04T09:47:37.956Z,78.94
2018-02-04T09:49:30.903Z,79.50
2018-02-04T09:50:30.915Z,79.32
2018-02-04T09:52:23.872Z,79.22
2018-02-04T09:53:23.868Z,79.50
2018-02-04T09:55:16.805Z,79.03
2018-02-04T09:56:16.818Z,79.03
2018-02-04T09:58:09.783Z,78.18
2018-02-04T09:59:09.774Z,78.37
2018-02-04T10:01:03.181Z,78.18
2018-02-04T10:02:03.179Z,78.37
2018-02-04T10:03:56.077Z,79.22
2018-02-04T10:04:56.090Z,79.22
2018-02-04T10:06:49.503Z,79.75
2018-02-04T10:07:49.494Z,79.50
2018-02-04T10:09:42.390Z,80.22
2018-02-04T10:10:42.406Z,80.51
2018-02-04T10:12:35.318Z,80.41
2018-02-04T10:13:35.313Z,81.07
2018-02-04T10:15:28.777Z,81.64
2018-02-04T10:16:28.771Z,81.17
2018-02-04T10:18:22.178Z,81.55
2018-02-04T10:19:22.173Z,81.36
2018-02-04T10:21:15.235Z,81.26
2018-02-04T10:22:15.229Z,80.51
2018-02-04T10:24:08.243Z,80.64
2018-02-04T10:25:08.300Z,80.55
2018-02-04T10:27:01.324Z,79.60
2018-02-04T10:28:01.276Z,79.50
2018-02-04T10:29:54.285Z,80.17
2018-02-04T10:30:54.194Z,79.79
2018-02-04T10:32:47.220Z,80.04
2018-02-04T10:33:47.215Z,80.26
2018-02-04T10:35:40.103Z,80.45
2018-02-04T10:36:40.121Z,81.12
2018-02-04T10:38:33.073Z,80.93
2018-02-04T10:39:33.034Z,80.74
2018-02-04T10:41:25.949Z,81.68
2018-02-04T10:42:25.946Z,80.55
2018-02-04T10:44:18.842Z,80.07
2018-02-04T10:45:18.853Z,80.17
2018-02-04T10:47:11.769Z,80.07
2018-02-04T10:48:11.764Z,79.60
2018-02-04T10:50:04.659Z,79.98
2018-02-04T10:51:04.676Z,80.17
2018-02-04T10:52:57.679Z,77.89
2018-02-04T10:53:57.669Z,77.33
2018-02-04T10:55:50.576Z,77.04
2018-02-04T10:56:50.588Z,76.67
2018-02-04T10:58:43.585Z,77.61
2018-02-04T10:59:43.550Z,77.04
2018-02-04T11:01:36.419Z,75.24
2018-02-04T11:02:36.412Z,75.05
2018-02-04T11:04:29.802Z,75.24
2018-02-04T11:05:29.816Z,75.81
2018-02-04T11:07:22.737Z,75.53
2018-02-04T11:08:22.734Z,75.81
2018-02-04T11:10:15.626Z,75.81
2018-02-04T11:11:15.643Z,76.29
2018-02-04T11:13:08.557Z,76.19
2018-02-04T11:14:08.552Z,76.86
2018-02-04T11:16:01.452Z,76.67
2018-02-04T11:17:01.468Z,75.05
2018-02-04T11:18:54.382Z,75.05
2018-02-04T11:19:54.375Z,75.05
2018-02-04T11:21:47.295Z,75.05
2018-02-04T11:22:47.288Z,74.87
2018-02-04T11:24:40.186Z,74.87
2018-02-04T11:25:40.202Z,75.24
2018-02-04T11:27:33.116Z,74.77
2018-02-04T11:28:33.114Z,74.21
2018-02-04T11:30:26.083Z,73.83
2018-02-04T11:31:26.096Z,74.30
2018-02-04T11:33:18.937Z,74.30
2018-02-04T11:34:18.936Z,74.21
2018-02-04T11:36:11.840Z,74.02
2018-02-04T11:37:11.845Z,74.40
2018-02-04T11:39:06.120Z,74.43
2018-02-04T11:40:05.279Z,73.49
2018-02-04T11:41:58.197Z,73.30
2018-02-04T11:42:58.195Z,74.05
2018-02-04T11:44:51.102Z,74.24
2018-02-04T11:45:51.116Z,74.24
2018-02-04T11:47:44.032Z,73.01
2018-02-04T11:48:44.028Z,72.16
2018-02-04T11:50:36.928Z,73.30
2018-02-04T11:51:36.943Z,73.11
2018-02-04T11:53:29.862Z,73.30
2018-02-04T11:54:29.854Z,72.82
2018-02-04T11:56:23.281Z,73.49
2018-02-04T11:57:23.292Z,74.24
2018-02-04T11:59:16.216Z,73.68
2018-02-04T12:00:16.212Z,73.39
2018-02-04T12:02:09.132Z,73.39
2018-02-04T12:03:09.130Z,74.33
2018-02-04T12:05:02.026Z,73.20
2018-02-04T12:06:02.039Z,73.49
2018-02-04T12:07:55.448Z,74.43
2018-02-04T12:08:55.444Z,74.62
2018-02-04T12:10:48.342Z,74.37
2018-02-04T12:11:48.360Z,73.96
2018-02-04T12:13:41.274Z,72.73
2018-02-04T12:14:41.270Z,72.53
2018-02-04T12:16:34.166Z,74.33
2018-02-04T12:17:34.179Z,74.24
2018-02-04T12:19:27.099Z,74.52
2018-02-04T12:20:27.089Z,74.33
2018-02-04T12:22:20.013Z,75.00
2018-02-04T12:23:20.003Z,75.09
2018-02-04T12:25:12.908Z,75.28
2018-02-04T12:26:12.918Z,76.14
2018-02-04T12:28:05.835Z,76.23
2018-02-04T12:29:05.842Z,76.32
2018-02-04T12:30:58.732Z,76.38
2018-02-04T12:31:58.743Z,76.29
2018-02-04T12:33:51.665Z,76.19
2018-02-04T12:34:51.660Z,76.57
2018-02-04T12:36:44.554Z,76.95
2018-02-04T12:37:44.566Z,76.86
2018-02-04T12:39:37.483Z,77.08
2018-02-04T12:40:37.479Z,77.70
2018-02-04T12:42:30.392Z,77.46
2018-02-04T12:43:30.388Z,77.56
2018-02-04T12:45:23.292Z,77.80
2018-02-04T12:46:23.305Z,78.31
2018-02-04T12:48:16.221Z,77.70
2018-02-04T12:49:16.217Z,77.61
2018-02-04T12:51:09.633Z,77.51
2018-02-04T12:52:09.623Z,77.51
2018-02-04T12:54:02.538Z,77.70
2018-02-04T12:55:02.534Z,78.18
2018-02-04T12:56:56.926Z,78.46
2018-02-04T12:57:56.938Z,78.79
2018-02-04T12:59:49.850Z,78.59
2018-02-04T13:00:49.844Z,78.69
2018-02-04T13:02:42.761Z,78.69
2018-02-04T13:03:42.757Z,78.31
2018-02-04T13:05:35.652Z,77.84
2018-02-04T13:06:35.666Z,78.69
2018-02-04T13:08:28.583Z,78.13
2018-02-04T13:09:28.576Z,78.03
2018-02-04T13:11:21.480Z,78.13
2018-02-04T13:12:21.495Z,77.08
2018-02-04T13:14:14.413Z,77.84
2018-02-04T13:15:14.406Z,76.89
2018-02-04T13:17:07.309Z,76.42
2018-02-04T13:18:07.321Z,77.18
2018-02-04T13:20:00.238Z,77.08
2018-02-04T13:21:00.235Z,76.99
2018-02-04T13:22:53.147Z,76.14
2018-02-04T13:23:53.144Z,75.95
2018-02-04T13:25:46.049Z,74.52
2018-02-04T13:26:46.064Z,74.43
2018-02-04T13:28:38.981Z,75.00
2018-02-04T13:29:38.978Z,75.47
2018-02-04T13:31:31.874Z,76.04
2018-02-04T13:32:31.888Z,74.52
2018-02-04T13:34:24.849Z,75.09
2018-02-04T13:35:24.800Z,75.09
2018-02-04T13:37:19.388Z,74.90
2018-02-04T13:38:19.405Z,74.81
2018-02-04T13:40:12.823Z,74.47
2018-02-04T13:41:12.825Z,74.28
2018-02-04T13:43:07.229Z,73.68
2018-02-04T13:44:07.227Z,73.24
2018-02-04T13:46:00.122Z,72.53
2018-02-04T13:47:00.145Z,73.39
2018-02-04T13:48:53.066Z,73.39
2018-02-04T13:49:53.050Z,73.49
2018-02-04T13:51:46.794Z,74.62
2018-02-04T13:52:46.808Z,74.90
2018-02-04T13:54:39.724Z,74.52
2018-02-04T13:55:39.722Z,75.00
2018-02-04T13:57:32.639Z,74.90
2018-02-04T13:58:32.666Z,75.47
2018-02-04T14:00:25.642Z,75.76
2018-02-04T14:01:25.640Z,76.61
2018-02-04T14:03:19.607Z,76.42
2018-02-04T14:04:19.602Z,76.70
2018-02-04T14:06:12.500Z,76.23
2018-02-04T14:07:12.509Z,76.89
2018-02-04T14:09:05.442Z,76.51
2018-02-04T14:10:05.420Z,76.61
2018-02-04T14:11:58.357Z,76.04
2018-02-04T14:12:58.353Z,77.08
2018-02-04T14:14:52.248Z,77.08
2018-02-04T14:15:51.285Z,76.61
2018-02-04T14:17:44.711Z,77.18
2018-02-04T14:18:44.725Z,76.89
2018-02-04T14:20:37.642Z,76.99
2018-02-04T14:21:37.635Z,77.56
2018-02-04T14:23:30.572Z,77.94
2018-02-04T14:24:30.569Z,77.56
2018-02-04T14:26:23.507Z,77.37
2018-02-04T14:27:23.524Z,77.84
2018-02-04T14:29:16.531Z,78.69
2018-02-04T14:30:16.500Z,78.31
2018-02-04T14:32:09.475Z,78.22
2018-02-04T14:33:09.455Z,77.94
2018-02-04T14:35:02.521Z,77.75
2018-02-04T14:36:02.535Z,77.75
2018-02-04T14:37:55.610Z,77.75
2018-02-04T14:38:55.561Z,76.89
2018-02-04T14:40:48.954Z,76.89
2018-02-04T14:41:48.615Z,77.56
2018-02-04T14:43:42.073Z,76.80
2018-02-04T14:44:42.075Z,76.32
2018-02-04T14:46:35.084Z,76.89
2018-02-04T14:47:35.036Z,76.80
2018-02-04T14:49:27.990Z,76.89
2018-02-04T14:50:28.013Z,77.18
2018-02-04T14:52:20.917Z,77.37
2018-02-04T14:53:20.931Z,76.89
2018-02-04T14:55:13.889Z,77.75
2018-02-04T14:56:13.885Z,78.03
2018-02-04T14:58:06.824Z,77.27
2018-02-04T14:59:06.840Z,77.75
2018-02-04T15:00:59.796Z,77.46
2018-02-04T15:01:59.789Z,77.37
2018-02-04T15:03:52.751Z,77.37
2018-02-04T15:04:52.747Z,77.94
2018-02-04T15:06:45.687Z,78.41
2018-02-04T15:07:45.701Z,79.36
2018-02-04T15:09:38.661Z,79.07
2018-02-04T15:10:38.653Z,79.36
2018-02-04T15:12:31.595Z,80.11
2018-02-04T15:13:31.611Z,79.93
2018-02-04T15:15:24.565Z,79.83
2018-02-04T15:16:24.561Z,80.02
2018-02-04T15:18:17.503Z,80.11
2018-02-04T15:19:17.519Z,79.83
2018-02-04T15:21:10.477Z,80.21
2018-02-04T15:22:10.474Z,79.83
2018-02-04T15:24:03.811Z,80.11
2018-02-04T15:25:03.801Z,80.87
2018-02-04T15:26:56.931Z,79.79
2018-02-04T15:27:56.927Z,80.07
2018-02-04T15:29:51.386Z,80.93
2018-02-04T15:30:51.382Z,80.74
2018-02-04T15:32:45.959Z,80.83
2018-02-04T15:33:45.968Z,80.55
2018-02-04T15:35:38.933Z,80.55
2018-02-04T15:36:38.929Z,80.64
2018-02-04T15:38:31.868Z,80.45
2018-02-04T15:39:31.884Z,80.07
2018-02-04T15:41:24.844Z,80.58
2018-02-04T15:42:24.839Z,80.58
2018-02-04T15:44:17.860Z,80.68
2018-02-04T15:45:17.787Z,80.30
2018-02-04T15:47:10.728Z,79.93
2018-02-04T15:48:10.745Z,79.93
2018-02-04T15:50:03.715Z,80.49
2018-02-04T15:51:03.698Z,80.40
2018-02-04T15:52:56.646Z,79.83
2018-02-04T15:53:56.653Z,80.02
2018-02-04T15:55:49.610Z,80.11
2018-02-04T15:56:49.608Z,80.02
2018-02-04T15:58:42.547Z,80.40
2018-02-04T15:59:42.562Z,79.93
2018-02-04T16:01:35.521Z,79.64
2018-02-04T16:02:35.517Z,79.83
2018-02-04T16:04:28.476Z,80.11
2018-02-04T16:05:28.472Z,80.02
2018-02-04T16:07:21.406Z,80.30
2018-02-04T16:08:21.422Z,80.30
2018-02-04T16:10:14.894Z,80.02
2018-02-04T16:11:14.890Z,80.11
2018-02-04T16:13:07.838Z,79.83
2018-02-04T16:14:07.943Z,79.83
2018-02-04T16:16:00.807Z,79.64
2018-02-04T16:17:00.798Z,79.45
2018-02-04T16:18:53.737Z,79.64
2018-02-04T16:19:53.752Z,79.45
2018-02-04T16:21:46.710Z,79.36
2018-02-04T16:22:46.708Z,79.74
2018-02-04T16:24:39.664Z,79.55
2018-02-04T16:25:39.680Z,79.83
2018-02-04T16:27:32.602Z,80.30
2018-02-04T16:28:32.613Z,80.40
2018-02-04T16:30:25.573Z,80.02
2018-02-04T16:31:25.569Z,80.30
2018-02-04T16:33:19.023Z,79.83
2018-02-04T16:34:19.036Z,80.02
2018-02-04T16:36:11.997Z,80.40
2018-02-04T16:37:11.992Z,80.87
2018-02-04T16:39:04.929Z,80.11
2018-02-04T16:40:04.986Z,80.58
2018-02-04T16:41:57.906Z,80.58
2018-02-04T16:42:57.901Z,80.49
2018-02-04T16:44:50.857Z,79.74
2018-02-04T16:45:50.850Z,79.93
2018-02-04T16:47:43.796Z,79.74
2018-02-04T16:48:43.831Z,80.02
2018-02-04T16:50:44.163Z,79.45
2018-02-04T16:51:44.160Z,79.74
2018-02-04T16:53:48.102Z,79.83
2018-02-04T16:54:48.118Z,80.02
2018-02-04T16:56:42.312Z,80.21
2018-02-04T16:57:41.022Z,80.30
2018-02-04T16:59:33.942Z,80.30
2018-02-04T17:00:33.928Z,80.49
2018-02-04T17:02:26.827Z,80.58
2018-02-04T17:03:26.850Z,80.49
2018-02-04T17:05:19.754Z,80.40
2018-02-04T17:06:19.744Z,80.40
2018-02-04T17:08:12.645Z,80.77
2018-02-04T17:09:12.654Z,81.15
2018-02-04T17:11:05.567Z,81.72
2018-02-04T17:12:05.557Z,81.53
2018-02-04T17:13:58.450Z,81.72
2018-02-04T17:14:58.506Z,81.63
2018-02-04T17:16:51.368Z,81.72
2018-02-04T17:17:51.363Z,81.72
2018-02-04T17:19:44.281Z,81.92
2018-02-04T17:20:44.269Z,81.92
2018-02-04T17:22:37.181Z,81.82
2018-02-04T17:23:37.187Z,81.72
2018-02-04T17:25:30.081Z,82.48
2018-02-04T17:26:30.082Z,82.20
2018-02-04T17:28:22.967Z,82.34
2018-02-04T17:29:22.980Z,82.63
2018-02-04T17:31:15.919Z,82.76
2018-02-04T17:32:15.887Z,82.76
2018-02-04T17:34:08.777Z,83.20
2018-02-04T17:35:08.830Z,82.91
2018-02-04T17:37:01.698Z,83.20
2018-02-04T17:38:01.696Z,83.20
2018-02-04T17:39:54.605Z,82.82
2018-02-04T17:40:54.595Z,83.76
2018-02-04T17:42:47.515Z,83.76
2018-02-04T17:43:47.520Z,83.29
2018-02-04T17:45:40.450Z,83.48
2018-02-04T17:46:40.429Z,83.67
2018-02-04T17:48:33.392Z,83.39
2018-02-04T17:49:33.386Z,83.39
2018-02-04T17:51:26.243Z,83.48
2018-02-04T17:52:26.236Z,83.20
2018-02-04T17:54:19.139Z,83.95
2018-02-04T17:55:19.159Z,83.95
2018-02-04T17:57:12.059Z,83.76
2018-02-04T17:58:12.054Z,84.42
2018-02-04T18:00:05.942Z,84.42
2018-02-04T18:01:05.955Z,84.14
2018-02-04T18:02:58.862Z,83.95
2018-02-04T18:03:58.856Z,83.95
2018-02-04T18:05:51.763Z,83.95
2018-02-04T18:06:51.758Z,84.42
2018-02-04T18:08:44.647Z,84.81
2018-02-04T18:09:44.658Z,84.52
2018-02-04T18:11:37.570Z,84.61
2018-02-04T18:12:37.563Z,84.71
2018-02-04T18:14:30.453Z,84.52
2018-02-04T18:15:30.466Z,84.71
2018-02-04T18:17:23.377Z,84.71
2018-02-04T18:18:23.370Z,84.71
2018-02-04T18:20:16.258Z,84.71
2018-02-04T18:21:16.271Z,84.71
2018-02-04T18:23:09.185Z,84.81
2018-02-04T18:24:09.181Z,84.90
2018-02-04T18:26:02.089Z,84.71
2018-02-04T18:27:02.082Z,84.90
2018-02-04T18:28:54.980Z,84.33
2018-02-04T18:29:54.992Z,84.81
2018-02-04T18:31:47.902Z,84.71
2018-02-04T18:32:47.895Z,84.52
2018-02-04T18:34:40.789Z,84.81